Time;durP1;ratioP1;P1;durP2;ratioP2;P2;SDS_P1;SDS_P2;PMS_P1;PMS_P2;Temp;Humidity;BMP_temperature;BMP_pressure;BME280_temperature;BME280_humidity;BME280_pressure;Samples;Min_cycle;Max_cycle;Signal;HPM_P1;HPM_P2
2023/05/10 00:01:20;;;;;;;0.60;0.60;;;;;;;7.18;41.29;100248.16;6301520;22;20106;-81
2023/05/10 00:03:48;;;;;;;0.50;0.50;;;;;;;7.14;41.16;100242.31;6303056;22;20023;-81
2023/05/10 00:06:15;;;;;;;0.60;0.60;;;;;;;7.14;41.00;100239.63;6303332;22;20034;-81
2023/05/10 00:08:42;;;;;;;0.60;0.60;;;;;;;7.11;41.28;100238.16;6303363;22;20106;-81
2023/05/10 00:11:09;;;;;;;0.60;0.60;;;;;;;7.07;41.42;100225.34;6275823;22;20019;-81
2023/05/10 00:13:36;;;;;;;0.50;0.50;;;;;;;7.05;41.19;100224.69;6303034;22;20029;-81
2023/05/10 00:16:04;;;;;;;0.60;0.60;;;;;;;7.13;41.19;100232.63;6303199;22;20021;-81
2023/05/10 00:18:32;;;;;;;0.57;0.57;;;;;;;7.07;41.19;100228.03;6302903;22;20019;-80
2023/05/10 00:20:59;;;;;;;0.60;0.60;;;;;;;7.01;42.26;100237.66;6301747;22;20023;-80
2023/05/10 00:23:26;;;;;;;0.50;0.50;;;;;;;6.94;42.40;100229.56;6304474;22;20019;-80
2023/05/10 00:25:53;;;;;;;0.52;0.52;;;;;;;7.03;42.94;100243.66;6304409;22;20023;-80
2023/05/10 00:28:21;;;;;;;0.55;0.55;;;;;;;7.00;44.16;100241.38;6304019;22;20023;-80
2023/05/10 00:30:48;;;;;;;0.50;0.50;;;;;;;7.02;44.00;100247.38;6301686;22;20026;-80
2023/05/10 00:33:15;;;;;;;0.55;0.55;;;;;;;6.99;44.32;100245.09;6301710;22;20025;-80
2023/05/10 00:35:42;;;;;;;0.52;0.52;;;;;;;6.94;44.51;100247.53;6302820;22;20031;-80
2023/05/10 00:38:10;;;;;;;0.60;0.60;;;;;;;6.87;44.86;100231.34;6276158;22;20027;-80
2023/05/10 00:40:37;;;;;;;0.50;0.50;;;;;;;6.93;45.35;100249.34;6302562;22;20019;-80
2023/05/10 00:43:10;;;;;;;0.52;0.52;;;;;;;6.88;45.90;100243.72;6302612;22;20023;-80
2023/05/10 00:45:40;;;;;;;0.60;0.60;;;;;;;6.82;46.54;100260.59;6302181;22;20527;-80
2023/05/10 00:48:08;;;;;;;0.60;0.60;;;;;;;6.76;46.39;100253.31;6305006;22;20319;-81
2023/05/10 00:50:37;;;;;;;0.60;0.60;;;;;;;6.77;46.98;100241.53;6276604;22;20019;-80
2023/05/10 00:53:04;;;;;;;0.50;0.50;;;;;;;6.71;46.41;100245.00;6277147;22;20023;-80
2023/05/10 00:55:31;;;;;;;0.60;0.60;;;;;;;6.69;47.04;100249.72;6303980;22;20023;-81
2023/05/10 00:57:59;;;;;;;0.55;0.55;;;;;;;6.65;47.68;100251.09;6276691;22;20488;-81
2023/05/10 01:00:26;;;;;;;0.60;0.60;;;;;;;6.71;48.08;100250.38;6302049;22;20462;-81
2023/05/10 01:02:54;;;;;;;0.50;0.50;;;;;;;6.76;48.18;100247.94;6302469;22;20019;-80
2023/05/10 01:05:22;;;;;;;0.60;0.60;;;;;;;6.74;47.47;100249.97;6303882;22;20448;-80
2023/05/10 01:07:50;;;;;;;0.60;0.60;;;;;;;6.70;46.50;100243.31;6303924;22;20101;-80
2023/05/10 01:10:18;;;;;;;0.60;0.60;;;;;;;6.68;47.62;100243.53;6276957;22;20020;-80
2023/05/10 01:12:47;;;;;;;0.60;0.60;;;;;;;6.63;48.03;100245.09;6303921;22;20355;-80
2023/05/10 01:15:16;;;;;;;0.55;0.55;;;;;;;6.54;48.28;100230.16;6305421;22;20065;-80
2023/05/10 01:17:45;;;;;;;0.60;0.60;;;;;;;6.66;48.27;100244.69;6253103;22;20025;-80
2023/05/10 01:20:13;;;;;;;0.60;0.60;;;;;;;6.69;47.70;100244.34;6253460;22;20037;-80
2023/05/10 01:23:07;;;;;;;0.60;0.60;;;;;;;6.67;47.78;100235.66;6278586;22;20481;-80
2023/05/10 01:26:14;;;;;;;0.55;0.55;;;;;;;6.65;48.13;100238.50;6303892;22;20492;-80
2023/05/10 01:28:48;;;;;;;0.60;0.60;;;;;;;6.55;48.53;100235.31;6210554;23;20024;-80
2023/05/10 01:32:20;;;;;;;0.60;0.60;;;;;;;6.50;48.89;100233.19;6210893;23;20448;-80
2023/05/10 01:35:17;;;;;;;0.60;0.60;;;;;;;6.44;47.81;100241.16;6126885;23;20036;-80
2023/05/10 01:37:52;;;;;;;0.60;0.60;;;;;;;6.45;47.38;100238.28;6150980;23;20025;-80
2023/05/10 01:40:45;;;;;;;0.70;0.70;;;;;;;6.46;48.78;100236.44;6102829;23;20049;-80
2023/05/10 01:43:19;;;;;;;0.50;0.50;;;;;;;6.41;48.34;100237.00;6118481;23;20501;-80
2023/05/10 01:46:12;;;;;;;0.63;0.63;;;;;;;6.41;48.92;100239.69;6126306;23;20025;-80
2023/05/10 01:48:59;;;;;;;0.60;0.60;;;;;;;6.42;49.99;100238.66;6150709;23;20030;-80
2023/05/10 01:51:30;;;;;;;0.60;0.60;;;;;;;6.32;50.22;100227.38;6150743;23;20068;-80
2023/05/10 01:54:02;;;;;;;0.60;0.60;;;;;;;6.33;48.81;100228.22;6151482;23;20131;-80
2023/05/10 01:56:32;;;;;;;0.60;0.60;;;;;;;6.41;48.06;100238.84;6151613;23;20021;-80
2023/05/10 01:59:00;;;;;;;0.60;0.60;;;;;;;6.36;47.81;100223.31;6102547;23;20361;-80
2023/05/10 02:01:27;;;;;;;0.60;0.60;;;;;;;6.32;47.84;100230.06;6126227;23;20021;-79
2023/05/10 02:03:55;;;;;;;0.50;0.50;;;;;;;6.33;47.77;100239.78;6171905;23;20049;-81
2023/05/10 02:06:24;;;;;;;0.60;0.60;;;;;;;6.29;47.68;100227.78;6231818;22;20031;-80
2023/05/10 02:08:52;;;;;;;0.70;0.70;;;;;;;6.29;47.97;100220.56;6304554;22;20023;-81
2023/05/10 02:11:20;;;;;;;0.60;0.60;;;;;;;6.42;47.91;100229.78;6304431;22;20019;-80
2023/05/10 02:13:51;;;;;;;0.60;0.60;;;;;;;6.45;47.88;100227.53;6279244;22;20374;-80
2023/05/10 02:16:22;;;;;;;0.70;0.70;;;;;;;6.50;48.04;100233.19;6281944;22;20026;-80
2023/05/10 02:18:51;;;;;;;0.60;0.60;;;;;;;6.42;47.95;100222.56;6317171;22;20050;-82
2023/05/10 02:21:20;;;;;;;0.50;0.50;;;;;;;6.39;48.41;100222.13;6317167;22;20023;-81
2023/05/10 02:23:49;;;;;;;0.60;0.60;;;;;;;6.45;49.87;100232.91;6288027;22;20088;-80
2023/05/10 02:26:17;;;;;;;0.70;0.70;;;;;;;6.46;50.93;100231.09;6304867;22;20023;-80
2023/05/10 02:28:45;;;;;;;0.60;0.60;;;;;;;6.40;51.17;100224.59;6304969;22;20023;-80
2023/05/10 02:31:14;;;;;;;0.60;0.60;;;;;;;6.45;50.79;100230.22;6278372;22;20023;-80
2023/05/10 02:33:42;;;;;;;0.50;0.50;;;;;;;6.51;51.34;100232.19;6303614;22;20023;-80
2023/05/10 02:36:14;;;;;;;0.60;0.60;;;;;;;6.55;51.21;100239.84;6304044;22;20118;-80
2023/05/10 02:38:41;;;;;;;0.60;0.60;;;;;;;6.53;50.84;100228.47;6303449;22;20023;-80
2023/05/10 02:41:10;;;;;;;0.60;0.60;;;;;;;6.47;50.74;100222.00;6303898;22;20027;-80
2023/05/10 02:43:38;;;;;;;0.60;0.60;;;;;;;6.55;50.65;100226.44;6278648;22;20019;-80
2023/05/10 02:46:07;;;;;;;0.60;0.60;;;;;;;6.54;50.17;100225.59;6284593;22;20371;-80
2023/05/10 02:48:37;;;;;;;0.50;0.50;;;;;;;6.64;50.29;100230.66;6309143;22;20049;-80
2023/05/10 02:51:07;;;;;;;0.60;0.60;;;;;;;6.55;50.43;100207.66;6304310;22;20051;-80
2023/05/10 02:53:36;;;;;;;0.60;0.60;;;;;;;6.57;50.77;100221.72;6307299;22;20054;-80
2023/05/10 02:56:13;;;;;;;0.60;0.60;;;;;;;6.65;51.35;100221.59;6305368;22;20107;-80
2023/05/10 02:58:41;;;;;;;0.60;0.60;;;;;;;6.65;51.32;100218.91;6303422;22;20023;-80
2023/05/10 03:01:12;;;;;;;0.60;0.60;;;;;;;6.63;51.11;100210.22;6304283;22;20019;-80
2023/05/10 03:03:42;;;;;;;0.60;0.60;;;;;;;6.65;51.18;100205.50;6305903;22;20350;-80
2023/05/10 03:06:09;;;;;;;0.60;0.60;;;;;;;6.71;51.10;100220.84;6304133;22;20023;-80
2023/05/10 03:08:37;;;;;;;0.60;0.60;;;;;;;6.62;51.24;100203.19;6304234;22;20049;-80
2023/05/10 03:11:17;;;;;;;0.50;0.50;;;;;;;6.75;51.43;100222.13;6303712;22;20072;-79
2023/05/10 03:14:13;;;;;;;0.60;0.60;;;;;;;6.84;51.18;100225.53;6279002;22;20047;-80
2023/05/10 03:16:54;;;;;;;0.70;0.70;;;;;;;6.87;51.18;100225.16;6303833;22;20098;-79
2023/05/10 03:19:31;;;;;;;0.60;0.60;;;;;;;6.94;51.06;100220.69;6302981;22;20585;-79
2023/05/10 03:22:00;;;;;;;0.55;0.55;;;;;;;6.95;50.81;100217.78;6278077;22;20026;-80
2023/05/10 03:24:34;;;;;;;0.60;0.60;;;;;;;7.04;50.55;100217.66;6278509;22;20030;-80
2023/05/10 03:27:04;;;;;;;0.60;0.60;;;;;;;7.06;50.51;100215.63;6252850;22;20157;-80
2023/05/10 03:29:39;;;;;;;0.60;0.60;;;;;;;7.02;50.49;100209.00;6278236;22;20030;-80
2023/05/10 03:32:06;;;;;;;0.60;0.60;;;;;;;7.09;50.61;100217.91;6303322;22;20019;-80
2023/05/10 03:34:36;;;;;;;0.60;0.60;;;;;;;7.13;50.43;100216.50;6304522;22;20076;-80
2023/05/10 03:37:07;;;;;;;0.60;0.60;;;;;;;7.25;50.06;100216.84;6278221;22;20023;-80
2023/05/10 03:39:35;;;;;;;0.60;0.60;;;;;;;7.22;50.27;100215.38;6302512;22;20023;-80
2023/05/10 03:42:05;;;;;;;0.60;0.60;;;;;;;7.24;50.02;100223.22;6303128;22;20416;-80
2023/05/10 03:44:33;;;;;;;0.50;0.50;;;;;;;7.10;50.38;100198.09;6302808;22;20026;-80
2023/05/10 03:47:00;;;;;;;0.60;0.60;;;;;;;7.25;50.09;100217.66;6304501;22;20417;-80
2023/05/10 03:49:28;;;;;;;0.60;0.60;;;;;;;7.24;50.61;100213.31;6302948;22;20088;-80
2023/05/10 03:51:55;;;;;;;0.60;0.60;;;;;;;7.33;50.13;100220.19;6303025;22;20076;-80
2023/05/10 03:54:26;;;;;;;0.60;0.60;;;;;;;7.41;49.91;100215.72;6276971;22;20068;-80
2023/05/10 03:56:53;;;;;;;0.60;0.60;;;;;;;7.45;49.70;100214.31;6277123;22;20034;-80
2023/05/10 03:59:21;;;;;;;0.60;0.60;;;;;;;7.49;49.29;100207.50;6304324;22;20019;-80
2023/05/10 04:01:50;;;;;;;0.70;0.70;;;;;;;7.53;49.10;100206.09;6303211;22;20041;-80
2023/05/10 04:04:18;;;;;;;0.70;0.70;;;;;;;7.62;49.14;100206.78;6302874;22;20077;-80
2023/05/10 04:06:49;;;;;;;0.63;0.63;;;;;;;7.66;48.89;100219.63;6277758;22;20610;-80
2023/05/10 04:09:17;;;;;;;0.70;0.70;;;;;;;7.74;48.89;100211.41;6304826;22;20106;-80
2023/05/10 04:11:44;;;;;;;0.70;0.70;;;;;;;7.87;48.41;100201.78;6302184;22;20103;-80
2023/05/10 04:14:11;;;;;;;0.60;0.60;;;;;;;7.95;48.29;100207.00;6302852;22;20019;-80
2023/05/10 04:16:39;;;;;;;0.60;0.60;;;;;;;8.02;48.17;100208.69;6304445;22;20019;-80
2023/05/10 04:19:06;;;;;;;0.60;0.60;;;;;;;7.98;48.50;100206.63;6304246;22;20043;-80
2023/05/10 04:21:33;;;;;;;0.60;0.60;;;;;;;8.08;48.34;100204.41;6301693;22;20389;-79
2023/05/10 04:24:00;;;;;;;0.70;0.70;;;;;;;8.20;48.09;100205.50;6304154;22;20026;-79
2023/05/10 04:26:28;;;;;;;0.70;0.70;;;;;;;8.26;48.00;100203.88;6303795;22;20034;-80
2023/05/10 04:28:55;;;;;;;0.65;0.65;;;;;;;8.35;47.66;100208.03;6301885;22;20398;-80
2023/05/10 04:31:22;;;;;;;0.60;0.60;;;;;;;8.43;47.08;100201.66;6301952;22;20023;-80
2023/05/10 04:33:52;;;;;;;0.60;0.60;;;;;;;8.55;46.73;100201.94;6303986;22;20024;-80
2023/05/10 04:36:19;;;;;;;0.63;0.63;;;;;;;8.63;46.65;100193.66;6276953;22;20450;-80
2023/05/10 04:38:46;;;;;;;0.60;0.60;;;;;;;8.67;46.17;100195.75;6303465;22;20023;-80
2023/05/10 04:41:13;;;;;;;0.60;0.60;;;;;;;8.77;46.06;100200.75;6303109;22;20358;-79
2023/05/10 04:43:40;;;;;;;0.60;0.60;;;;;;;8.86;46.01;100199.53;6301131;22;20408;-80
2023/05/10 04:46:08;;;;;;;0.60;0.60;;;;;;;9.00;45.66;100195.00;6303194;22;20019;-81
2023/05/10 04:48:35;;;;;;;0.60;0.60;;;;;;;9.02;45.71;100198.31;6301220;22;20530;-79
2023/05/10 04:51:03;;;;;;;0.60;0.60;;;;;;;9.08;45.61;100202.03;6303948;22;20023;-79
2023/05/10 04:53:31;;;;;;;0.60;0.60;;;;;;;9.20;45.44;100203.09;6303453;22;20399;-82
2023/05/10 04:55:58;;;;;;;0.60;0.60;;;;;;;9.31;44.85;100196.25;6303714;22;20020;-80
2023/05/10 04:58:25;;;;;;;0.70;0.70;;;;;;;9.35;44.85;100180.53;6303947;22;20019;-80
2023/05/10 05:00:52;;;;;;;0.60;0.60;;;;;;;9.43;44.58;100194.59;6302702;22;20033;-80
2023/05/10 05:03:23;;;;;;;0.70;0.70;;;;;;;9.40;44.18;100165.38;6303407;22;20076;-80
2023/05/10 05:05:50;;;;;;;0.60;0.60;;;;;;;9.76;43.35;100188.34;6302419;22;20524;-81
2023/05/10 05:08:20;;;;;;;0.60;0.60;;;;;;;9.88;43.39;100185.84;6303901;22;20026;-81
2023/05/10 05:10:50;;;;;;;0.60;0.60;;;;;;;10.02;42.92;100192.00;6302420;22;20023;-80
2023/05/10 05:13:17;;;;;;;0.60;0.60;;;;;;;10.17;42.39;100181.78;6303078;22;20029;-81
2023/05/10 05:15:44;;;;;;;0.60;0.60;;;;;;;10.36;42.22;100190.91;6303924;22;20023;-80
2023/05/10 05:18:11;;;;;;;0.60;0.60;;;;;;;10.38;42.10;100184.25;6309008;22;20426;-82
2023/05/10 05:20:39;;;;;;;0.60;0.60;;;;;;;10.40;41.94;100182.13;6307133;22;20453;-79
2023/05/10 05:23:08;;;;;;;0.60;0.60;;;;;;;10.60;41.08;100184.75;6303741;22;20395;-81
2023/05/10 05:25:36;;;;;;;0.60;0.60;;;;;;;10.72;40.61;100174.09;6303625;22;20070;-80
2023/05/10 05:28:03;;;;;;;0.60;0.60;;;;;;;10.78;40.79;100180.50;6309057;22;20033;-80
2023/05/10 05:30:30;;;;;;;0.60;0.60;;;;;;;10.94;40.71;100179.13;6307623;22;20019;-80
2023/05/10 05:32:57;;;;;;;0.60;0.60;;;;;;;11.08;39.32;100169.91;6304019;22;20027;-79
2023/05/10 05:35:24;;;;;;;0.50;0.50;;;;;;;11.17;37.83;100167.78;6302799;22;20028;-79
2023/05/10 05:37:51;;;;;;;0.60;0.60;;;;;;;11.31;36.55;100172.00;6305079;22;20049;-81
2023/05/10 05:40:20;;;;;;;0.60;0.60;;;;;;;11.38;36.02;100161.16;6306656;22;20030;-82
2023/05/10 05:42:50;;;;;;;0.60;0.60;;;;;;;11.67;35.92;100167.72;6306769;22;20019;-82
2023/05/10 05:45:22;;;;;;;0.60;0.60;;;;;;;11.85;34.53;100166.91;6306871;22;20025;-81
2023/05/10 05:47:49;;;;;;;0.70;0.70;;;;;;;11.95;34.54;100166.44;6306534;22;20559;-82
2023/05/10 05:50:17;;;;;;;0.60;0.60;;;;;;;12.12;34.27;100164.78;6306918;22;20111;-82
2023/05/10 05:52:46;;;;;;;0.60;0.60;;;;;;;12.07;34.51;100146.50;6305144;22;20027;-82
2023/05/10 05:55:14;;;;;;;0.60;0.60;;;;;;;12.07;34.53;100135.69;6305534;22;20034;-82
2023/05/10 05:57:43;;;;;;;0.60;0.60;;;;;;;12.30;33.70;100156.63;6307169;22;20020;-82
2023/05/10 06:00:10;;;;;;;0.60;0.60;;;;;;;12.49;33.49;100159.34;6316815;22;20023;-81
2023/05/10 06:02:41;;;;;;;0.60;0.60;;;;;;;12.39;32.61;100127.38;6307353;22;20026;-82
2023/05/10 06:05:08;;;;;;;0.60;0.60;;;;;;;12.63;32.21;100154.53;6305177;22;20026;-82
2023/05/10 06:07:36;;;;;;;0.60;0.60;;;;;;;12.92;31.65;100155.59;6304874;22;20050;-81
2023/05/10 06:10:06;;;;;;;0.57;0.57;;;;;;;12.96;30.20;100149.47;6304782;22;20125;-81
2023/05/10 06:12:37;;;;;;;0.50;0.50;;;;;;;12.98;30.27;100158.19;6304531;22;20026;-81
2023/05/10 06:15:07;;;;;;;0.57;0.57;;;;;;;13.07;29.35;100155.16;6305107;22;20019;-82
2023/05/10 06:17:35;;;;;;;0.52;0.52;;;;;;;13.19;28.96;100148.69;6305069;22;20047;-81
2023/05/10 06:20:02;;;;;;;0.60;0.60;;;;;;;13.09;28.68;100140.31;6304772;22;20076;-81
2023/05/10 06:22:30;;;;;;;0.60;0.60;;;;;;;13.14;28.75;100145.00;6302999;22;20027;-82
2023/05/10 06:24:58;;;;;;;0.55;0.55;;;;;;;13.26;28.51;100142.31;6303526;22;20029;-82
2023/05/10 06:27:25;;;;;;;0.50;0.50;;;;;;;13.54;28.99;100139.75;6305301;22;20031;-81
2023/05/10 06:29:52;;;;;;;0.50;0.50;;;;;;;13.94;28.35;100130.88;6305167;22;20381;-81
2023/05/10 06:32:37;;;;;;;0.50;0.50;;;;;;;14.31;28.50;100141.41;6304702;22;20154;-81
2023/05/10 06:35:06;;;;;;;0.50;0.50;;;;;;;14.55;27.45;100127.75;6305410;22;20523;-82
2023/05/10 06:37:35;;;;;;;0.50;0.50;;;;;;;14.43;27.26;100141.34;6303270;22;20023;-81
2023/05/10 06:40:06;;;;;;;0.50;0.50;;;;;;;14.23;27.78;100139.91;6277449;22;20027;-83
2023/05/10 06:42:33;;;;;;;0.50;0.50;;;;;;;14.21;27.50;100131.16;6304826;22;20027;-82
2023/05/10 06:45:02;;;;;;;0.60;0.60;;;;;;;14.18;27.28;100123.50;6303249;22;20340;-82
2023/05/10 06:47:31;;;;;;;0.50;0.50;;;;;;;14.15;27.41;100121.25;6278165;22;20062;-83
2023/05/10 06:49:58;;;;;;;0.52;0.52;;;;;;;14.46;27.01;100119.16;6304843;22;20030;-83
2023/05/10 06:52:26;;;;;;;0.50;0.50;;;;;;;14.39;27.06;100130.16;6305106;22;20019;-83
2023/05/10 06:54:53;;;;;;;0.60;0.60;;;;;;;14.47;26.64;100142.53;6305072;22;20031;-82
2023/05/10 06:57:20;;;;;;;0.60;0.60;;;;;;;14.40;26.26;100125.53;6252999;22;20023;-82
2023/05/10 07:00:01;;;;;;;0.50;0.50;;;;;;;14.45;26.48;100122.94;6303154;22;20023;-82
2023/05/10 07:02:32;;;;;;;0.50;0.50;;;;;;;14.58;25.75;100127.28;6278329;22;20019;-82
2023/05/10 07:04:59;;;;;;;0.50;0.50;;;;;;;14.39;25.93;100121.19;6304852;22;20328;-82
2023/05/10 07:07:31;;;;;;;0.50;0.50;;;;;;;14.45;25.51;100122.94;6303077;22;20023;-82
2023/05/10 07:09:58;;;;;;;0.50;0.50;;;;;;;14.49;25.26;100114.06;6304424;22;20019;-83
2023/05/10 07:12:26;;;;;;;0.50;0.50;;;;;;;14.54;25.17;100126.94;6277261;22;20101;-83
2023/05/10 07:14:53;;;;;;;0.50;0.50;;;;;;;14.48;25.26;100101.56;6304615;22;20354;-82
2023/05/10 07:17:20;;;;;;;0.50;0.50;;;;;;;14.74;24.87;100118.34;6305497;22;20066;-83
2023/05/10 07:19:48;;;;;;;0.50;0.50;;;;;;;14.74;24.62;100121.06;6303102;22;20022;-83
2023/05/10 07:22:16;;;;;;;0.60;0.60;;;;;;;14.98;24.41;100110.84;6303436;22;20084;-82
2023/05/10 07:24:45;;;;;;;0.60;0.60;;;;;;;15.30;24.15;100119.25;6304421;22;20342;-81
2023/05/10 07:27:12;;;;;;;0.60;0.60;;;;;;;15.38;24.03;100109.84;6303193;22;20453;-82
2023/05/10 07:29:39;;;;;;;0.50;0.50;;;;;;;15.39;24.19;100100.63;6302958;22;20029;-83
2023/05/10 07:32:06;;;;;;;0.60;0.60;;;;;;;15.58;24.25;100115.59;6304618;22;20653;-83
2023/05/10 07:34:34;;;;;;;0.50;0.50;;;;;;;15.38;23.98;100094.34;6277546;22;20023;-82
2023/05/10 07:37:01;;;;;;;0.57;0.57;;;;;;;15.51;24.29;100111.41;6304757;22;20110;-83
2023/05/10 07:39:28;;;;;;;0.50;0.50;;;;;;;15.62;24.00;100099.56;6301960;22;20027;-81
2023/05/10 07:41:56;;;;;;;0.55;0.55;;;;;;;15.65;23.63;100103.69;6301989;22;20046;-81
2023/05/10 07:44:23;;;;;;;0.55;0.55;;;;;;;15.99;23.55;100099.81;6301307;22;20114;-82
2023/05/10 07:46:50;;;;;;;0.50;0.50;;;;;;;15.93;23.27;100103.56;6303331;22;20027;-79
2023/05/10 07:49:18;;;;;;;0.50;0.50;;;;;;;15.93;23.39;100089.16;6304073;22;20450;-79
2023/05/10 07:51:45;;;;;;;0.50;0.50;;;;;;;15.96;23.40;100086.72;6303686;22;20027;-80
2023/05/10 07:54:12;;;;;;;0.50;0.50;;;;;;;16.22;23.18;100098.72;6297902;22;20073;-78
2023/05/10 07:56:44;;;;;;;0.50;0.50;;;;;;;16.12;23.40;100087.72;6298548;22;20080;-80
2023/05/10 07:59:15;;;;;;;0.60;0.60;;;;;;;16.27;23.79;100083.53;6298378;22;20023;-78
2023/05/10 08:01:42;;;;;;;0.50;0.50;;;;;;;16.81;24.08;100084.38;6298186;22;20023;-77
2023/05/10 08:04:10;;;;;;;0.50;0.50;;;;;;;16.95;22.94;100079.31;6296452;22;20023;-78
2023/05/10 08:06:38;;;;;;;0.50;0.50;;;;;;;16.37;23.21;100087.19;6296961;22;20031;-78
2023/05/10 08:09:05;;;;;;;0.57;0.57;;;;;;;16.08;23.52;100077.59;6297387;22;20046;-79
2023/05/10 08:11:32;;;;;;;0.50;0.50;;;;;;;16.53;23.98;100076.44;6299391;22;20023;-81
2023/05/10 08:14:01;;;;;;;0.50;0.50;;;;;;;17.04;23.18;100068.72;6300567;22;20023;-80
2023/05/10 08:16:28;;;;;;;0.50;0.50;;;;;;;17.13;22.88;100071.81;6301817;22;20077;-78
2023/05/10 08:18:57;;;;;;;0.60;0.60;;;;;;;17.03;22.65;100069.81;6300470;22;20027;-79
2023/05/10 08:21:27;;;;;;;0.60;0.60;;;;;;;17.35;22.80;100063.50;6298282;22;20019;-79
2023/05/10 08:23:55;;;;;;;0.65;0.65;;;;;;;17.74;22.57;100062.06;6297605;22;20019;-77
2023/05/10 08:26:23;;;;;;;0.60;0.60;;;;;;;17.76;21.75;100056.34;6296445;22;20335;-80
2023/05/10 08:28:50;;;;;;;0.60;0.60;;;;;;;17.43;22.28;100052.91;6298754;22;20072;-79
2023/05/10 08:31:20;;;;;;;0.70;0.70;;;;;;;17.85;22.56;100045.75;6301543;22;20023;-79
2023/05/10 08:33:51;;;;;;;0.70;0.70;;;;;;;17.53;22.03;100055.69;6299818;22;20702;-79
2023/05/10 08:36:21;;;;;;;0.60;0.60;;;;;;;17.59;22.17;100040.16;6299741;22;20042;-80
2023/05/10 08:38:52;;;;;;;0.68;0.68;;;;;;;18.28;21.64;100046.44;6275311;22;20069;-80
2023/05/10 08:41:26;;;;;;;0.60;0.60;;;;;;;18.55;21.56;100038.81;6302721;22;20400;-79
2023/05/10 08:43:54;;;;;;;0.60;0.60;;;;;;;18.89;20.65;100041.06;6300829;22;20685;-79
2023/05/10 08:46:26;;;;;;;0.70;0.70;;;;;;;19.85;20.29;100041.09;6296672;22;20023;-80
2023/05/10 08:48:54;;;;;;;0.40;0.40;;;;;;;19.26;21.43;100034.44;6297927;22;20102;-80
2023/05/10 08:51:31;;;;;;;0.40;0.40;;;;;;;18.41;21.44;100033.06;6298181;22;20043;-79
2023/05/10 08:54:02;;;;;;;0.70;0.70;;;;;;;18.33;20.99;100032.78;6297901;22;20042;-80
2023/05/10 08:56:29;;;;;;;0.70;0.70;;;;;;;19.36;20.97;100028.94;6296771;22;20019;-81
2023/05/10 08:58:57;;;;;;;0.40;0.40;;;;;;;20.40;19.86;100021.91;6271375;22;20030;-80
2023/05/10 09:01:25;;;;;;;0.50;0.50;;;;;;;20.24;19.63;100022.00;6296052;22;20025;-81
2023/05/10 09:03:52;;;;;;;0.80;0.80;;;;;;;20.25;20.40;100018.16;6298332;22;20026;-81
2023/05/10 09:06:20;;;;;;;0.70;0.70;;;;;;;21.32;18.63;100019.19;6271671;22;20019;-81
2023/05/10 09:08:48;;;;;;;0.40;0.40;;;;;;;20.89;18.21;100032.78;6295816;22;20080;-81
2023/05/10 09:11:22;;;;;;;0.40;0.40;;;;;;;18.61;20.41;100017.78;6301500;22;20768;-80
2023/05/10 09:13:51;;;;;;;0.38;0.38;;;;;;;18.29;20.67;100013.38;6250662;22;20019;-80
2023/05/10 09:16:18;;;;;;;0.40;0.40;;;;;;;17.92;21.17;100013.56;6271108;22;20674;-81
2023/05/10 09:18:49;;;;;;;0.40;0.40;;;;;;;17.33;21.09;100003.75;6296911;22;20027;-81
2023/05/10 09:21:16;;;;;;;0.40;0.40;;;;;;;17.19;21.66;100014.31;6296561;22;20023;-80
2023/05/10 09:23:47;;;;;;;0.40;0.40;;;;;;;17.26;21.48;100014.88;6296361;22;20041;-81
2023/05/10 09:26:15;;;;;;;0.40;0.40;;;;;;;17.44;21.75;100004.59;6298760;22;20110;-81
2023/05/10 09:28:55;;;;;;;0.50;0.50;;;;;;;18.30;21.54;100000.53;6271862;22;20061;-81
2023/05/10 09:31:54;;;;;;;0.50;0.50;;;;;;;18.63;21.06;100002.75;6298251;22;20030;-80
2023/05/10 09:34:34;;;;;;;0.70;0.70;;;;;;;19.89;20.50;100001.09;6299075;22;20446;-82
2023/05/10 09:37:05;;;;;;;0.40;0.40;;;;;;;20.36;20.68;99997.00;6298304;22;20358;-81
2023/05/10 09:39:34;;;;;;;0.85;0.85;;;;;;;20.52;19.22;99995.75;6298073;22;20031;-82
2023/05/10 09:42:07;;;;;;;0.80;0.80;;;;;;;21.80;17.97;99996.38;6298075;22;20030;-82
2023/05/10 09:44:46;;;;;;;0.50;0.50;;;;;;;22.53;18.14;99984.06;6274414;22;20544;-81
2023/05/10 09:47:19;;;;;;;0.40;0.40;;;;;;;21.97;18.14;99988.47;6299948;22;20018;-80
2023/05/10 09:49:51;;;;;;;0.47;0.47;;;;;;;20.74;19.25;99965.16;6300507;22;20029;-79
2023/05/10 09:52:18;;;;;;;0.40;0.40;;;;;;;20.76;19.22;99982.16;6299844;22;20030;-79
2023/05/10 09:55:07;;;;;;;0.80;0.80;;;;;;;21.97;18.06;99982.16;6272278;22;20059;-81
2023/05/10 09:57:34;;;;;;;0.40;0.40;;;;;;;20.39;18.69;99963.50;6272365;22;20073;-80
2023/05/10 10:00:05;;;;;;;0.40;0.40;;;;;;;19.32;19.47;99970.41;6298283;22;20106;-82
2023/05/10 10:02:40;;;;;;;0.90;0.90;;;;;;;20.65;18.51;99977.03;6274920;22;20027;-80
2023/05/10 10:05:12;;;;;;;0.50;0.50;;;;;;;22.10;18.04;99972.34;6297577;22;20050;-80
2023/05/10 10:07:50;;;;;;;0.80;0.80;;;;;;;23.02;17.11;99970.88;6300436;22;20527;-82
2023/05/10 10:10:17;;;;;;;0.90;0.90;;;;;;;24.57;15.98;99967.28;6300247;22;20031;-80
2023/05/10 10:12:45;;;;;;;0.80;0.80;;;;;;;25.61;15.42;99959.47;6270554;22;20054;-82
2023/05/10 10:15:17;;;;;;;0.30;0.30;;;;;;;24.99;15.94;99949.34;6297906;22;20026;-82
2023/05/10 10:17:46;;;;;;;0.40;0.40;;;;;;;23.32;16.80;99928.97;6297445;22;20716;-83
2023/05/10 10:20:14;;;;;;;0.40;0.40;;;;;;;22.34;17.79;99929.13;6247042;22;20106;-83
2023/05/10 10:22:49;;;;;;;0.40;0.40;;;;;;;21.82;18.04;99941.97;6298440;22;20019;-81
2023/05/10 10:25:17;;;;;;;0.40;0.40;;;;;;;21.32;18.61;99952.47;6298974;22;20247;-82
2023/05/10 10:27:51;;;;;;;0.30;0.30;;;;;;;20.83;18.40;99948.06;6298225;22;20034;-82
2023/05/10 10:30:21;;;;;;;0.40;0.40;;;;;;;20.34;18.81;99952.59;6299786;22;20023;-81
2023/05/10 10:32:58;;;;;;;0.30;0.30;;;;;;;20.01;19.50;99946.78;6300470;22;20027;-81
2023/05/10 10:35:25;;;;;;;0.40;0.40;;;;;;;19.99;19.07;99945.44;6301166;22;20587;-81
2023/05/10 10:37:55;;;;;;;0.40;0.40;;;;;;;20.20;19.16;99949.66;6301483;22;20454;-86
2023/05/10 10:40:27;;;;;;;0.40;0.40;;;;;;;20.22;19.46;99941.16;6273806;22;20023;-82
2023/05/10 10:42:55;;;;;;;0.30;0.30;;;;;;;19.65;19.81;99940.69;6299154;22;20050;-81
2023/05/10 10:45:23;;;;;;;0.40;0.40;;;;;;;19.36;19.94;99935.06;6298810;22;20076;-81
2023/05/10 10:48:19;;;;;;;0.40;0.40;;;;;;;19.76;19.83;99938.75;6300790;22;20054;-81
2023/05/10 10:50:47;;;;;;;0.40;0.40;;;;;;;19.91;19.74;99941.38;6290769;22;20023;-82
2023/05/10 10:53:18;;;;;;;0.77;0.77;;;;;;;21.49;18.76;99932.81;6297928;22;20410;-81
2023/05/10 10:55:47;;;;;;;0.90;0.90;;;;;;;23.77;16.19;99926.38;6299625;22;20030;-81
2023/05/10 10:58:32;;;;;;;0.70;0.70;;;;;;;25.55;15.22;99924.00;6300463;22;20077;-81
2023/05/10 11:01:18;;;;;;;0.32;0.32;;;;;;;23.68;16.16;99922.69;6297399;22;20030;-81
2023/05/10 11:04:17;;;;;;;0.40;0.40;;;;;;;21.75;17.69;99920.38;6298772;22;20023;-80
2023/05/10 11:06:46;;;;;;;0.40;0.40;;;;;;;21.15;18.22;99914.53;6300697;22;20043;-80
2023/05/10 11:09:17;;;;;;;0.40;0.40;;;;;;;20.59;18.54;99907.72;6303328;22;20031;-80
2023/05/10 11:11:58;;;;;;;0.40;0.40;;;;;;;19.53;19.35;99910.09;6302294;22;20468;-81
2023/05/10 11:14:25;;;;;;;0.40;0.40;;;;;;;19.51;19.55;99912.28;6303273;22;20072;-80
2023/05/10 11:16:52;;;;;;;0.45;0.45;;;;;;;19.70;19.41;99908.66;6303871;22;20050;-80
2023/05/10 11:19:20;;;;;;;0.40;0.40;;;;;;;19.88;19.27;99906.34;6302474;22;20019;-80
2023/05/10 11:21:53;;;;;;;0.40;0.40;;;;;;;20.06;19.59;99910.31;6304216;22;20023;-80
2023/05/10 11:24:22;;;;;;;0.40;0.40;;;;;;;20.19;19.45;99904.19;6303080;22;20064;-80
2023/05/10 11:26:53;;;;;;;0.30;0.30;;;;;;;20.10;20.09;99905.91;6302852;22;20077;-79
2023/05/10 11:29:22;;;;;;;0.30;0.30;;;;;;;20.05;20.28;99903.19;6189180;23;20028;-80
2023/05/10 11:31:50;;;;;;;0.40;0.40;;;;;;;19.99;20.34;99901.59;6239651;23;20369;-79
2023/05/10 11:34:30;;;;;;;0.30;0.30;;;;;;;19.98;20.26;99897.22;6239991;23;20024;-80
2023/05/10 11:36:58;;;;;;;0.30;0.30;;;;;;;19.95;19.85;99890.38;6214826;23;20028;-79
2023/05/10 11:39:29;;;;;;;0.35;0.35;;;;;;;19.99;19.95;99893.41;6213612;23;20067;-79
2023/05/10 11:41:59;;;;;;;0.40;0.40;;;;;;;20.16;20.22;99891.06;6239727;23;20078;-80
2023/05/10 11:44:33;;;;;;;0.40;0.40;;;;;;;20.19;20.32;99892.41;6212608;22;20255;-80